UMII 181300Z 10003G06MPS 060V130 CAVOK 23/03 Q1017 NOSIG
QNH:(hPa/inHg/mmHg)1017 / 30.03 / 763
QFE:(hPa/inHg/mmHg)992 / 29.29 / 744
Temperature23
Dew Point3
Visibility> 10000
WeatherCAVOK
Cloud Cover
Transition Altitude6000 ft.
Transition LevelFL70
SQUAWK